Airfield :
LOGIN :

Register | Disclaimer

   EN    FR    IT 

 










Legend :    VFR   Marginal VFR   IFR   Intensive IFR   Very Intensive IFR
Visi :
Ceiling :
>= 8 km
>= 3000ft
5 to 8 km
1000 to 3000 ft
1500m to 5 km
500 to 1000 ft
800 to 1500m
200 to 500 ft
< 800m
< 200 ft
Symbols :   Thunderstorms  Fog  Heavy snow  Heavy precipitations  Wind > 20 kt
SIGMETs :     Misc.  Thunderstorms  Icing  Turbulence  Mountain Waves  Volcanic Ashes






- Airport Elevation : 245 ft
- IATA code : BIQ


LFBZ - Biarritz

CURRENT METAR :
  • 090700Z AUTO 16003KT 9999 ///CB 20/18 Q1018 BECMG NSC

EXPIRED METARs :
  • 090630Z AUTO 20004KT 140V240 9999 ///CB 20/18 Q1018 BECMG NSC
  • 090600Z AUTO VRB02KT 9999 ///CB 21/19 Q1018 TEMPO 3000 TSRA BECMG NSC
  • 090530Z AUTO 16003KT 9999 -TSRA FEW040/// BKN100/// OVC130/// ///CB 20/18 Q1019 TEMPO 3000 TSRA BECMG NSC
  • 090500Z AUTO VRB01KT 9999 VCTS ///CB 21/17 Q1018 BECMG NSW NSC
  • 090430Z AUTO 18002KT 9999 //////CB 21/17 Q1018 BECMG NSC

TAF TAF LFBZ
Valid from the 09 at 06:00 until the 10 at 06:00 UTC


090500Z 0906/1006 VRB03KT CAVOK
TEMPO 0906/0907 4000 -SHRA SCT020 BKN090CB
PROB40
TEMPO 0906/0907 3000 TSRA SCT020 BKN080CB
BECMG 0909/0911 30010KT
BECMG 0922/0924 VRB03KT



MET'MAP, your aeronautical weather chart ! - Copyright ORBIFLY December 2007 - Disclaimer

ORBIFLY MET'MAP TEAM :

Programming & Development : Alexandra Zaïnal
Original concept : Baudouin d'Aumeries
Technical & hardware support : Manuel Goepfert
Assistance : Marc-Olivier Méhu




SOURCES & CREDITS :

   NOAA